createdAt,value
2024-01-20T00:04:09.342Z,84.69
2024-01-20T00:10:31.197Z,84.85
2024-01-20T00:16:51.310Z,84.8
2024-01-20T00:23:13.235Z,85.26
2024-01-20T00:29:33.200Z,85.73
2024-01-20T00:35:55.426Z,85.83
2024-01-20T00:42:15.339Z,85.33
2024-01-20T00:48:37.241Z,85.63
2024-01-20T00:54:57.341Z,85.53
2024-01-20T01:01:19.210Z,85.34
2024-01-20T01:07:39.288Z,85.51
2024-01-20T01:14:01.258Z,85.52
2024-01-20T01:20:21.325Z,85.06
2024-01-20T01:26:43.345Z,85.44
2024-01-20T01:33:03.241Z,85.01
2024-01-20T01:39:24.268Z,85.21
2024-01-20T01:45:44.304Z,84.87
2024-01-20T01:52:06.255Z,84.56
2024-01-20T01:58:26.263Z,84.92
2024-01-20T02:04:48.326Z,84.43
2024-01-20T02:11:08.373Z,84.66
2024-01-20T02:17:30.228Z,84.09
2024-01-20T02:23:50.352Z,84.25
2024-01-20T02:30:12.433Z,83.98
2024-01-20T02:36:32.340Z,84.38
2024-01-20T02:42:54.307Z,84.68
2024-01-20T02:49:14.306Z,84.73
2024-01-20T02:55:36.186Z,84.7
2024-01-20T03:01:56.365Z,85.04
2024-01-20T03:08:18.434Z,84.4
2024-01-20T03:14:38.488Z,83.92
2024-01-20T03:21:00.244Z,84.94
2024-01-20T03:27:20.261Z,85.31
2024-01-20T03:33:42.255Z,85.28
2024-01-20T03:40:02.196Z,85.59
2024-01-20T03:46:24.373Z,85.17
2024-01-20T03:52:44.610Z,84.71
2024-01-20T04:09:09.724Z,83.99
2024-01-20T04:15:29.296Z,84.66
2024-01-20T04:21:51.245Z,85.07
2024-01-20T04:28:11.227Z,84.59
2024-01-20T04:34:33.281Z,84.98
2024-01-20T04:40:53.317Z,84.59
2024-01-20T04:47:15.248Z,84.81
2024-01-20T04:53:35.296Z,85.03
2024-01-20T04:59:57.268Z,84.91
2024-01-20T05:06:17.351Z,84.77
2024-01-20T05:12:39.260Z,84.41
2024-01-20T05:18:59.488Z,84.58
2024-01-20T05:25:21.281Z,84.51
2024-01-20T05:31:41.390Z,83.89
2024-01-20T05:38:03.220Z,83.33
2024-01-20T05:44:23.256Z,83.81
2024-01-20T05:50:45.841Z,83.74
2024-01-20T05:57:05.270Z,83.58
2024-01-20T06:03:27.417Z,83.35
2024-01-20T06:09:47.323Z,83.98
2024-01-20T06:16:09.272Z,83.75
2024-01-20T06:22:29.300Z,83.32
2024-01-20T06:28:51.418Z,82.92
2024-01-20T06:35:11.224Z,83.51
2024-01-20T06:41:33.344Z,83.29
2024-01-20T06:47:53.285Z,83.9
2024-01-20T06:54:15.300Z,83.54
2024-01-20T07:00:35.308Z,83.72
2024-01-20T07:06:57.329Z,83.3
2024-01-20T07:13:17.186Z,83.03
2024-01-20T07:19:39.334Z,83.41
2024-01-20T07:25:59.244Z,82.91
2024-01-20T07:32:21.221Z,82.94
2024-01-20T07:38:41.238Z,82.96
2024-01-20T07:45:03.481Z,83.07
2024-01-20T07:57:45.320Z,82.93
2024-01-20T08:04:05.212Z,82.76
2024-01-20T08:10:27.229Z,83.09
2024-01-20T08:16:47.288Z,83.32
2024-01-20T08:23:09.381Z,83.14
2024-01-20T08:29:29.260Z,83.51
2024-01-20T08:35:51.265Z,83.99
2024-01-20T08:42:11.235Z,84.15
2024-01-20T08:48:33.439Z,84.05
2024-01-20T09:05:51.205Z,84.41
2024-01-20T09:12:12.213Z,84.56
2024-01-20T09:18:32.290Z,84.39
2024-01-20T09:24:54.268Z,84.4
2024-01-20T09:31:14.217Z,84.24
2024-01-20T09:37:36.228Z,84.26
2024-01-20T09:43:56.291Z,84.14
2024-01-20T09:50:18.207Z,83.73
2024-01-20T09:56:38.417Z,83.5
2024-01-20T10:03:00.396Z,83.35
2024-01-20T10:09:20.265Z,83
2024-01-20T10:15:42.286Z,82.52
2024-01-20T10:22:02.245Z,82.07
2024-01-20T10:28:24.178Z,81.45
2024-01-20T10:34:44.321Z,80.99
2024-01-20T10:41:06.245Z,80.37
2024-01-20T10:47:26.277Z,79.73
2024-01-20T10:53:48.253Z,78.95
2024-01-20T11:00:08.258Z,78.24
2024-01-20T11:06:30.265Z,77.21
2024-01-20T11:12:50.219Z,76.87
2024-01-20T11:19:12.392Z,76.66
2024-01-20T11:25:32.226Z,76.25
2024-01-20T11:31:54.258Z,75.84
2024-01-20T11:38:14.267Z,75.01
2024-01-20T11:44:36.215Z,74.21
2024-01-20T11:50:56.233Z,73.64
2024-01-20T11:57:18.255Z,73.6
2024-01-20T12:03:38.310Z,72.99
2024-01-20T12:10:00.324Z,71.99
2024-01-20T12:16:20.340Z,71.53
2024-01-20T12:22:42.311Z,70.62
2024-01-20T12:29:02.214Z,70.41
2024-01-20T12:35:24.387Z,69.67
2024-01-20T12:41:44.321Z,69.97
2024-01-20T12:48:06.381Z,68.96
2024-01-20T12:54:26.397Z,67.7
2024-01-20T13:00:48.323Z,67.69
2024-01-20T13:07:09.128Z,67.32
2024-01-20T13:13:30.319Z,67.27
2024-01-20T13:19:50.265Z,67.38
2024-01-20T13:26:12.282Z,67.84
2024-01-20T13:32:32.302Z,69.03
2024-01-20T13:38:54.209Z,68.21
2024-01-20T13:45:14.356Z,68.21
2024-01-20T14:02:22.737Z,70.73
2024-01-20T14:08:42.204Z,70.9
2024-01-20T14:15:04.356Z,70.16
2024-01-20T14:21:24.608Z,71.07
2024-01-20T14:27:46.660Z,71.46
2024-01-20T14:34:06.353Z,71.09
2024-01-20T14:40:28.349Z,72.46
2024-01-20T14:46:48.236Z,73.06
2024-01-20T14:53:10.228Z,73.17
2024-01-20T14:59:30.346Z,73.77
2024-01-20T15:05:52.421Z,74.04
2024-01-20T15:12:12.451Z,74.29
2024-01-20T15:18:34.312Z,74.65
2024-01-20T15:24:54.321Z,75.12
2024-01-20T15:31:16.335Z,75.88
2024-01-20T15:37:36.240Z,76.07
2024-01-20T15:43:58.257Z,76.53
2024-01-20T15:50:18.244Z,76.68
2024-01-20T15:56:40.608Z,77.07
2024-01-20T16:03:00.365Z,77.38
2024-01-20T16:09:22.252Z,77.67
2024-01-20T16:15:42.422Z,77.57
2024-01-20T16:22:04.295Z,77.84
2024-01-20T16:28:24.270Z,78.14
2024-01-20T16:34:46.287Z,78.32
2024-01-20T16:41:06.207Z,78.71
2024-01-20T16:47:28.450Z,78.72
2024-01-20T16:53:48.295Z,78.94
2024-01-20T17:00:10.368Z,78.84
2024-01-20T17:06:30.385Z,78.92
2024-01-20T17:12:52.393Z,79.29
2024-01-20T17:19:12.294Z,79.69
2024-01-20T17:25:34.373Z,79.54
2024-01-20T17:31:54.248Z,79.93
2024-01-20T17:38:16.298Z,80
2024-01-20T17:44:36.294Z,80.01
2024-01-20T17:50:58.405Z,79.8
2024-01-20T17:57:18.195Z,79.81
2024-01-20T18:03:40.695Z,80.05
2024-01-20T18:20:47.134Z,80.42
2024-01-20T18:27:08.216Z,80.52
2024-01-20T18:33:28.234Z,80.41
2024-01-20T18:39:50.213Z,80.5
2024-01-20T18:46:09.346Z,80.83
2024-01-20T18:52:31.267Z,80.65
2024-01-20T18:58:51.313Z,80.59
2024-01-20T19:05:13.296Z,80.44
2024-01-20T19:11:33.223Z,80.4
2024-01-20T19:17:55.637Z,80.57
2024-01-20T19:24:15.207Z,80.33
2024-01-20T19:30:37.285Z,80.2
2024-01-20T19:36:57.390Z,80.62
2024-01-20T19:43:19.346Z,80.32
2024-01-20T19:49:39.410Z,80.84
2024-01-20T19:56:01.247Z,80.9
2024-01-20T20:02:21.213Z,80.64
2024-01-20T20:08:43.245Z,80.66
2024-01-20T20:15:03.243Z,80.07
2024-01-20T20:21:25.382Z,80.48
2024-01-20T20:27:45.234Z,80.26
2024-01-20T20:34:07.474Z,79.87
2024-01-20T20:40:27.294Z,79.87
2024-01-20T20:46:49.304Z,79.43
2024-01-20T20:53:09.338Z,78.43
2024-01-20T20:59:31.270Z,79.02
2024-01-20T21:05:51.306Z,78.69
2024-01-20T21:12:13.479Z,78.12
2024-01-20T21:18:33.306Z,78.03
2024-01-20T21:24:55.275Z,77.53
2024-01-20T21:31:15.391Z,77.08
2024-01-20T21:37:37.541Z,76.73
2024-01-20T21:43:57.428Z,76.48
2024-01-20T21:50:19.418Z,76.36
2024-01-20T21:56:39.230Z,76.52
2024-01-20T22:03:01.366Z,76.18
2024-01-20T22:09:21.246Z,76.28
2024-01-20T22:15:43.372Z,75.88
2024-01-20T22:22:03.372Z,75.66
2024-01-20T22:28:25.253Z,75.17
2024-01-20T22:34:45.252Z,74.51
2024-01-20T22:41:07.211Z,74.67
2024-01-20T22:57:31.306Z,74.4
2024-01-20T23:19:18.335Z,74.29
2024-01-20T23:25:38.227Z,74.18
2024-01-20T23:32:00.361Z,74.45
2024-01-20T23:38:20.244Z,75.29
2024-01-20T23:44:42.337Z,75.17
2024-01-20T23:51:02.226Z,75.33
2024-01-20T23:57:27.234Z,75.59
